x

Cape Cod - 24 Nm East Of Provincetown, Ma (44018) Wave Buoy

3:50am - Tue 30th Aug 2016 All times are EDT. -4 hours from GMT.

  • Sig Wave height 4.3ft
  • Swell Direction
  • Peak Period 12s
  • Average Period 5s
  • Wind
    11mph, 13mph gusts
  • Sea Temp 68°f
  • Air Temp 70°f
  • Sea Pressure 1020.5mb
  • Cape Cod - 24 Nm East Of Provincetown, Ma
  • Cape Cod - 24 Nm East Of Provincetown, Ma

More Historic Weather Station data

Upgrade to MSW Pro to gain access to the past 30 days of data for over 8000 Wavebouys and Weather Stations around the globe.

Join Pro

Comparision Forecast

View Surf forecast
   
Tue 08/30 3:50am 4.5ft 12s 5s 11 13 mph 1020.5mb 68f 70f
2:50am 4.5ft 12s 5s 16 18 mph 1020mb 68f 70f
1:50am 4.5ft 12s 6s 16 20 mph 1019.6mb 68f 70f
12:50am 5ft 12s 5s 18 20 mph 1019.5mb 69f 71f
Mon 08/29 11:50pm 4.5ft 12s 6s 18 20 mph 1019.2mb 69f 71f
10:50pm 4ft 12s 6s 16 20 mph 1019.3mb 69f 71f
9:50pm 4ft 11s 6s 16 20 mph 1018.8mb 69f 71f
8:50pm 4ft 11s 6s 16 20 mph 1018.6mb 69f 72f
7:50pm 3.5ft 12s 7s 16 18 mph 1018mb 69f 72f
6:50pm 3.5ft 11s 7s 11 13 mph 1017.1mb 69f 72f
5:50pm 2.5ft 12s 6s 9 11 mph 1017mb 69f 73f
4:50pm 2.5ft 13s 6s 13 16 mph 1016.5mb 69f 73f
3:50pm 2.5ft 13s 6s 11 13 mph 1016.5mb 69f 73f
2:50pm 3ft 14s 6s 9 11 mph 1016.4mb 69f 72f
1:50pm 2.5ft 13s 6s 11
mph
1016.2mb 68f 71f
12:50pm 3ft 14s 6s 11
mph
1016mb 68f 71f
11:50am 2.5ft 14s 6s 11 13 mph 1016.1mb 68f 71f
10:50am 2.5ft 13s 6s 11 13 mph 1016.4mb 68f 70f
9:50am 3ft 13s 6s 13 16 mph 1016.8mb 69f 71f
8:50am 3.5ft 12s 6s 13 16 mph 1017.1mb 69f 69f
7:50am 2.5ft 13s 6s 16
mph
1017.5mb 69f 69f
6:50am 2.5ft 12s 5s 13 16 mph 1018.1mb 69f 69f
5:50am 2.5ft 13s 5s 11 13 mph 1018.4mb 69f 68f
4:50am 2.5ft 14s 5s 13 16 mph 1019mb 69f 68f
3:50am 2.5ft 14s 4s 16 18 mph 1019.6mb 69f 68f
2:50am 3ft 14s 4s 18 20 mph 1019.6mb 69f 68f
1:50am 3ft 15s 4s 18 20 mph 1020.2mb 69f 68f
12:50am 2.5ft 15s 4s 18 20 mph 1020.7mb 70f 69f
Sun 08/28 11:50pm 2.5ft 15s 5s 18 20 mph 1020.8mb 70f 69f
10:50pm 2.5ft 15s 5s 16 18 mph 1021.5mb 70f 69f
9:50pm 2.5ft 15s 4s 16 18 mph 1021.5mb 71f 69f
8:50pm 2.5ft 15s 5s 16 20 mph 1021.6mb 71f 69f
7:50pm 2ft 14s 4s 16 18 mph 1021.4mb 71f 69f
6:50pm 2ft 14s 5s 16 18 mph 1021.9mb 71f 70f
5:50pm 1.6ft 14s 5s 13 16 mph 1022.4mb 71f 70f
4:50pm 2ft 15s 5s 11 13 mph 1023.1mb 71f 70f
3:50pm 1.6ft 15s 5s 11
mph
1023.9mb 71f 70f
2:50pm 1.6ft 9s 5s 9 11 mph 1024.3mb 71f 70f
1:50pm 1.6ft 8s 5s 7 9 mph 1024.8mb 72f 70f
12:50pm 1.6ft 9s 6s 7
mph
1025.2mb 71f 70f
11:50am 1.6ft 9s 6s 7 9 mph 1025.2mb 71f 70f
10:50am 1.6ft 8s 6s 9
mph
1025.5mb 71f 70f
9:50am 1.6ft 8s 7s 9 11 mph 1025.4mb 70f 70f
8:50am 1.6ft 8s 7s 9
mph
1025.5mb 70f 71f
7:50am 1.3ft 8s 6s 7 9 mph 1025.6mb 70f 71f
6:50am 1.3ft 8s 6s 7 9 mph 1025.4mb 70f 70f
5:50am 1.3ft 8s 6s 7
mph
1024.9mb 70f 70f
4:50am 1.3ft 8s 6s 4 7 mph 1024.5mb 70f 70f
3:50am 1.3ft 9s 5s 4 7 mph 1024.2mb 70f 70f
2:50am 1.3ft 9s 5s 7
mph
1024.6mb 70f 69f
1:50am 1.6ft 7s 6s 4 7 mph 1024.8mb 70f 69f
12:50am 1.6ft 8s 6s 7 9 mph 1024.8mb 70f 69f
Sat 08/27 11:50pm 2ft 7s 6s 2 4 mph 1024.4mb 70f 70f
10:50pm 2ft 8s 6s 2 4 mph 1024.2mb 71f 70f
9:50pm 2ft 9s 6s 7
mph
1023.8mb 71f 70f
8:50pm 1.6ft 8s 6s 7
mph
1023.1mb 71f 70f
7:50pm 1.6ft 9s 5s 7
mph
1022.4mb 71f 70f
6:50pm 2ft 9s 5s 4 7 mph 1022.1mb 71f 71f
5:50pm 2ft 9s 4s 7
mph
1021.9mb 71f 71f
4:50pm 1.6ft 8s 5s 2 4 mph 1022mb 71f 71f
3:50pm 1.6ft 9s 4s 4 7 mph 1021.8mb 71f 71f
2:50pm 1.6ft 4s 4s 4 7 mph 1021.9mb 71f 71f
1:50pm 1.6ft 6s 5s 9
mph
1021.8mb 71f 71f
12:50pm 1.6ft 7s 5s 9
mph
1021.7mb 70f 71f
11:50am 1.6ft 6s 5s 9 11 mph 1021.7mb 70f 71f
10:50am 1.6ft 8s 5s 9 11 mph 1021.8mb 70f 72f
9:50am 2ft 7s 5s 9 11 mph 1021.3mb 70f 72f
8:50am 2ft 8s 4s 9 11 mph 1020.7mb 70f 71f
7:50am 2ft 8s 4s 11 13 mph 1020.1mb 70f 71f
6:50am 2ft 8s 4s 9
mph
1019.3mb 70f 71f
5:50am 2ft 8s 4s 9 11 mph 1018.7mb 70f 72f
4:50am 1.6ft 8s 4s 9
mph
1018.1mb 70f 72f
3:50am 1.6ft 8s 4s 11 13 mph 1017.9mb 70f 72f
2:50am 1.6ft 9s 5s 11 13 mph 1017.5mb 70f 73f
1:50am 1.6ft 8s 5s 9 11 mph 1017.2mb 70f 73f
12:50am 1.6ft 9s 5s 9 11 mph 1016.8mb 70f 73f
Fri 08/26 11:50pm 1.6ft 8s 5s 7 9 mph 1016.2mb 70f 71f
10:50pm 1.6ft 8s 5s 7
mph
1015.8mb 70f 71f
9:50pm 2ft 7s 5s 7
mph
1015.3mb 70f 71f
8:50pm 2ft 7s 5s 9
mph
1014.9mb 70f 72f
7:50pm 2ft 7s 5s 4 7 mph 1014.4mb 70f 71f
6:50pm 2ft 8s 4s 4 7 mph 1014mb 70f 72f
5:50pm 2ft 8s 4s 9 11 mph 1013.7mb 70f 72f
4:50pm 2ft 4s 4s 9
mph
1013.6mb 70f 72f
3:50pm 2.5ft 8s 4s 9
mph
1013.6mb 70f 72f
2:50pm 2.5ft 4s 4s 13
mph
1013.3mb 70f 73f
1:50pm 2.5ft 5s 4s 11 13 mph 1013.5mb 70f 73f
12:50pm 2ft 9s 4s 9 11 mph 1014mb 69f 71f
11:50am 2ft 8s 4s 11 13 mph 1014mb 69f 71f
10:50am 2.5ft 5s 4s 13 16 mph 1014.4mb 69f 71f
9:50am 2.5ft 8s 5s 11 13 mph 1014.7mb 69f 70f